Sublime, Texas
Current Conditions -  °F | °C
As of 6:15 AM on Sunday 23 Nov 2014 (Local Time) from K66R Reporting Station
Clear Clear  
Wind Chill: 57°   Ceiling: Unl
Heat Index: 57°   Visibility: 10mi
Dew Point: 56°   Wind: 6mph
Humidity: 97%   Direction: 270°W
Pressure: 29.67"   Gusts: NA
Location:  29.48°N, 96.8°W
Report Text: K66R 231215Z AUTO 27005KT 10SM CLR 14/14 A2967 RMK AO2 T01400135
Loading
Personal Weather Stations






























Interactive Weather Map New forecast layout! Learn more

10-Day Weather Forecast

Advertisements
Track Severe Weather on mobile